createdAt,value
2023-05-14T00:00:27.746Z,92.17
2023-05-14T00:01:27.764Z,91.76
2023-05-14T00:02:27.811Z,91.45
2023-05-14T00:03:27.925Z,91.66
2023-05-14T00:04:27.823Z,91.45
2023-05-14T00:05:27.723Z,91.25
2023-05-14T00:06:27.707Z,91.66
2023-05-14T00:07:27.700Z,91.97
2023-05-14T00:08:27.667Z,91.97
2023-05-14T00:09:27.684Z,91.76
2023-05-14T00:10:27.645Z,91.55
2023-05-14T00:11:27.665Z,91.66
2023-05-14T00:12:27.632Z,92.11
2023-05-14T00:13:27.623Z,92.52
2023-05-14T00:14:27.597Z,92.73
2023-05-14T00:15:27.626Z,92.32
2023-05-14T00:16:27.621Z,92.42
2023-05-14T00:17:27.662Z,92.32
2023-05-14T00:18:27.630Z,91.29
2023-05-14T00:19:27.567Z,91.49
2023-05-14T00:20:27.537Z,91.91
2023-05-14T00:21:27.554Z,92.11
2023-05-14T00:22:27.512Z,92.01
2023-05-14T00:23:27.543Z,91.85
2023-05-14T00:24:27.498Z,91.53
2023-05-14T00:25:27.521Z,91.85
2023-05-14T00:26:27.472Z,91.74
2023-05-14T00:27:27.556Z,91.85
2023-05-14T00:28:27.460Z,92.25
2023-05-14T00:29:27.484Z,92.36
2023-05-14T00:30:27.425Z,92.25
2023-05-14T00:31:27.475Z,91.95
2023-05-14T00:32:27.455Z,91.64
2023-05-14T00:33:27.427Z,91.85
2023-05-14T00:34:27.398Z,92.05
2023-05-14T00:35:27.413Z,92.67
2023-05-14T00:36:27.363Z,92.67
2023-05-14T00:37:27.370Z,92.57
2023-05-14T00:38:27.373Z,92.25
2023-05-14T00:39:27.348Z,92.16
2023-05-14T00:40:27.348Z,91.85
2023-05-14T00:41:27.345Z,92.05
2023-05-14T00:42:27.305Z,92.05
2023-05-14T00:43:27.320Z,92.16
2023-05-14T00:44:27.284Z,91.53
2023-05-14T00:45:27.312Z,91.23
2023-05-14T00:46:27.316Z,91.53
2023-05-14T00:47:27.321Z,92.05
2023-05-14T00:48:27.242Z,92.16
2023-05-14T00:49:27.264Z,92.16
2023-05-14T00:50:27.289Z,91.85
2023-05-14T00:51:27.251Z,91.85
2023-05-14T00:52:27.197Z,91.89
2023-05-14T00:53:27.220Z,92.16
2023-05-14T00:54:27.180Z,92.30
2023-05-14T00:55:27.207Z,92.40
2023-05-14T00:56:27.158Z,92.50
2023-05-14T00:57:27.186Z,92.50
2023-05-14T00:58:27.166Z,92.20
2023-05-14T00:59:27.152Z,92.46
2023-05-14T01:00:27.113Z,92.57
2023-05-14T01:01:27.207Z,92.46
2023-05-14T01:02:27.146Z,92.25
2023-05-14T01:03:27.208Z,92.16
2023-05-14T01:04:27.070Z,91.95
2023-05-14T01:05:27.208Z,91.64
2023-05-14T01:06:27.070Z,91.02
2023-05-14T01:07:27.070Z,91.23
2023-05-14T01:08:27.023Z,91.64
2023-05-14T01:09:27.086Z,91.85
2023-05-14T01:10:27.085Z,91.95
2023-05-14T01:11:27.010Z,92.05
2023-05-14T01:12:26.995Z,92.05
2023-05-14T01:13:27.016Z,91.85
2023-05-14T01:14:26.961Z,92.16
2023-05-14T01:15:26.988Z,92.46
2023-05-14T01:16:26.967Z,92.67
2023-05-14T01:17:26.970Z,92.46
2023-05-14T01:18:26.968Z,92.36
2023-05-14T01:19:26.926Z,92.36
2023-05-14T01:20:26.930Z,92.16
2023-05-14T01:21:26.928Z,92.46
2023-05-14T01:22:26.881Z,92.97
2023-05-14T01:23:26.912Z,93.08
2023-05-14T01:24:26.882Z,92.97
2023-05-14T01:25:26.886Z,93.08
2023-05-14T01:26:26.837Z,92.97
2023-05-14T01:27:26.836Z,92.83
2023-05-14T01:28:26.815Z,92.73
2023-05-14T01:29:26.843Z,92.52
2023-05-14T01:30:26.888Z,92.11
2023-05-14T01:31:26.849Z,92.21
2023-05-14T01:32:26.868Z,92.52
2023-05-14T01:33:26.806Z,92.52
2023-05-14T01:34:26.764Z,92.63
2023-05-14T01:35:26.756Z,92.52
2023-05-14T01:36:26.730Z,92.73
2023-05-14T01:37:26.733Z,92.73
2023-05-14T01:38:26.713Z,92.73
2023-05-14T01:39:26.735Z,93.35
2023-05-14T01:40:26.727Z,93.44
2023-05-14T01:41:26.706Z,93.14
2023-05-14T01:42:26.664Z,93.04
2023-05-14T01:43:26.702Z,93.14
2023-05-14T01:44:26.641Z,93.44
2023-05-14T01:45:26.666Z,93.35
2023-05-14T01:46:26.634Z,93.55
2023-05-14T01:47:26.647Z,93.40
2023-05-14T01:48:26.611Z,93.20
2023-05-14T01:49:26.607Z,93.10
2023-05-14T01:50:26.581Z,93.30
2023-05-14T01:51:26.608Z,93.20
2023-05-14T01:52:26.557Z,93.20
2023-05-14T01:53:26.558Z,93.55
2023-05-14T01:54:26.534Z,93.55
2023-05-14T01:55:26.560Z,94.02
2023-05-14T01:56:26.522Z,94.12
2023-05-14T01:57:26.545Z,94.23
2023-05-14T01:58:26.496Z,94.12
2023-05-14T01:59:26.499Z,93.92
2023-05-14T02:00:26.663Z,93.82
2023-05-14T02:01:26.567Z,93.57
2023-05-14T02:02:26.528Z,93.46
2023-05-14T02:03:26.479Z,93.57
2023-05-14T02:04:26.558Z,93.67
2023-05-14T02:05:26.449Z,93.87
2023-05-14T02:06:26.401Z,93.77
2023-05-14T02:07:26.441Z,93.67
2023-05-14T02:08:26.387Z,93.67
2023-05-14T02:09:26.393Z,93.77
2023-05-14T02:10:26.451Z,93.87
2023-05-14T02:11:26.373Z,93.73
2023-05-14T02:12:26.355Z,93.52
2023-05-14T02:13:26.393Z,93.83
2023-05-14T02:14:26.323Z,93.77
2023-05-14T02:15:26.350Z,94.08
2023-05-14T02:16:26.370Z,94.18
2023-05-14T02:17:26.426Z,94.29
2023-05-14T02:18:26.315Z,94.08
2023-05-14T02:19:26.297Z,94.18
2023-05-14T02:20:26.344Z,94.08
2023-05-14T02:21:26.268Z,93.93
2023-05-14T02:22:26.252Z,93.93
2023-05-14T02:23:37.875Z,93.83
2023-05-14T02:24:26.219Z,93.83
2023-05-14T02:25:26.224Z,93.83
2023-05-14T02:26:26.202Z,93.83
2023-05-14T02:27:26.202Z,93.73
2023-05-14T02:28:26.177Z,93.73
2023-05-14T02:29:26.206Z,93.73
2023-05-14T02:30:26.177Z,93.83
2023-05-14T02:31:26.191Z,93.93
2023-05-14T02:32:26.211Z,93.83
2023-05-14T02:33:26.199Z,93.83
2023-05-14T02:34:26.145Z,93.83
2023-05-14T02:35:26.138Z,93.59
2023-05-14T02:36:26.099Z,93.48
2023-05-14T02:37:26.116Z,93.27
2023-05-14T02:38:26.074Z,93.17
2023-05-14T02:39:26.095Z,93.27
2023-05-14T02:40:26.287Z,93.27
2023-05-14T02:41:26.072Z,93.27
2023-05-14T02:42:26.037Z,93.38
2023-05-14T02:43:26.032Z,93.27
2023-05-14T02:44:26.007Z,93.38
2023-05-14T02:45:26.022Z,93.48
2023-05-14T02:46:26.000Z,93.48
2023-05-14T02:47:26.031Z,93.38
2023-05-14T02:48:25.967Z,93.38
2023-05-14T02:49:25.971Z,93.48
2023-05-14T02:50:26.225Z,93.38
2023-05-14T02:51:25.954Z,93.48
2023-05-14T02:52:25.932Z,93.59
2023-05-14T02:53:25.936Z,93.59
2023-05-14T02:54:25.909Z,93.79
2023-05-14T02:55:25.942Z,93.99
2023-05-14T02:56:25.895Z,93.99
2023-05-14T02:57:25.894Z,93.99
2023-05-14T02:58:28.218Z,94.10
2023-05-14T02:59:25.883Z,94.20
2023-05-14T03:00:26.098Z,94.40
2023-05-14T03:01:25.875Z,94.40
2023-05-14T03:02:25.957Z,94.40
2023-05-14T03:03:25.858Z,94.71
2023-05-14T03:04:25.796Z,94.92
2023-05-14T03:05:25.814Z,94.81
2023-05-14T03:06:25.797Z,94.71
2023-05-14T03:07:25.769Z,94.71
2023-05-14T03:08:25.777Z,94.71
2023-05-14T03:09:25.777Z,95.12
2023-05-14T03:10:25.961Z,95.32
2023-05-14T03:11:25.699Z,95.43
2023-05-14T03:12:25.684Z,95.53
2023-05-14T03:13:25.720Z,95.64
2023-05-14T03:14:25.707Z,95.94
2023-05-14T03:15:25.717Z,96.04
2023-05-14T03:16:25.660Z,95.94
2023-05-14T03:17:25.741Z,95.84
2023-05-14T03:18:25.701Z,95.59
2023-05-14T03:19:25.672Z,95.28
2023-05-14T03:20:25.824Z,95.28
2023-05-14T03:21:25.613Z,95.28
2023-05-14T03:22:25.577Z,95.28
2023-05-14T03:23:25.573Z,95.07
2023-05-14T03:24:25.533Z,95.28
2023-05-14T03:25:25.557Z,95.28
2023-05-14T03:26:25.514Z,95.28
2023-05-14T03:27:25.533Z,95.39
2023-05-14T03:28:25.509Z,95.39
2023-05-14T03:29:25.498Z,95.49
2023-05-14T03:30:25.792Z,95.59
2023-05-14T03:31:25.514Z,95.49
2023-05-14T03:32:25.476Z,95.59
2023-05-14T03:33:25.473Z,95.69
2023-05-14T03:34:25.443Z,95.59
2023-05-14T03:35:25.457Z,95.49
2023-05-14T03:36:25.407Z,95.39
2023-05-14T03:37:25.423Z,95.28
2023-05-14T03:38:25.389Z,95.39
2023-05-14T03:39:25.411Z,95.39
2023-05-14T03:40:25.613Z,95.28
2023-05-14T03:41:25.365Z,95.18
2023-05-14T03:42:25.343Z,95.28
2023-05-14T03:43:25.369Z,95.28
2023-05-14T03:44:25.332Z,95.39
2023-05-14T03:45:25.338Z,95.49
2023-05-14T03:46:25.294Z,95.49
2023-05-14T03:47:25.331Z,95.39
2023-05-14T03:48:25.405Z,95.28
2023-05-14T03:49:25.291Z,95.07
2023-05-14T03:50:25.659Z,95.07
2023-05-14T03:51:25.264Z,94.98
2023-05-14T03:52:25.232Z,95.07
2023-05-14T03:53:25.249Z,95.07
2023-05-14T03:54:25.220Z,95.28
2023-05-14T03:55:25.240Z,95.14
2023-05-14T03:56:25.190Z,95.03
2023-05-14T03:57:25.216Z,95.03
2023-05-14T03:58:25.170Z,94.93
2023-05-14T03:59:25.169Z,95.03
2023-05-14T04:00:25.544Z,95.14
2023-05-14T04:01:25.174Z,94.93
2023-05-14T04:02:25.209Z,95.34
2023-05-14T04:03:25.234Z,95.24
2023-05-14T04:04:25.179Z,95.14
2023-05-14T04:05:25.112Z,94.93
2023-05-14T04:06:25.098Z,95.14
2023-05-14T04:07:25.098Z,95.03
2023-05-14T04:08:25.066Z,95.03
2023-05-14T04:09:25.060Z,95.34
2023-05-14T04:10:25.223Z,95.44
2023-05-14T04:11:25.037Z,95.44
2023-05-14T04:12:25.033Z,95.24
2023-05-14T04:13:25.024Z,95.44
2023-05-14T04:14:25.034Z,95.44
2023-05-14T04:15:25.004Z,95.44
2023-05-14T04:16:25.021Z,95.34
2023-05-14T04:17:25.010Z,95.14
2023-05-14T04:18:25.060Z,95.14
2023-05-14T04:19:24.952Z,94.93
2023-05-14T04:20:25.177Z,94.78
2023-05-14T04:21:24.924Z,94.89
2023-05-14T04:22:24.988Z,94.99
2023-05-14T04:23:24.905Z,95.09
2023-05-14T04:24:24.911Z,94.99
2023-05-14T04:25:24.879Z,94.89
2023-05-14T04:26:24.903Z,94.78
2023-05-14T04:27:24.872Z,94.78
2023-05-14T04:28:24.894Z,94.99
2023-05-14T04:29:24.845Z,95.09
2023-05-14T04:30:25.080Z,95.20
2023-05-14T04:31:24.850Z,94.99
2023-05-14T04:32:24.881Z,95.09
2023-05-14T04:33:24.810Z,94.99
2023-05-14T04:34:24.807Z,94.99
2023-05-14T04:35:25.104Z,94.99
2023-05-14T04:36:24.786Z,94.99
2023-05-14T04:37:24.752Z,94.99
2023-05-14T04:38:24.777Z,94.89
2023-05-14T04:39:24.742Z,94.99
2023-05-14T04:40:24.983Z,94.84
2023-05-14T04:41:24.714Z,94.95
2023-05-14T04:42:24.731Z,94.95
2023-05-14T04:43:24.687Z,95.05
2023-05-14T04:44:24.721Z,94.95
2023-05-14T04:45:24.671Z,94.95
2023-05-14T04:46:24.742Z,94.95
2023-05-14T04:47:24.669Z,94.95
2023-05-14T04:48:24.665Z,94.95
2023-05-14T04:49:24.638Z,94.95
2023-05-14T04:50:24.913Z,94.95
2023-05-14T04:51:24.595Z,95.05
2023-05-14T04:52:24.630Z,95.15
2023-05-14T04:53:24.592Z,95.15
2023-05-14T04:54:24.616Z,95.25
2023-05-14T04:55:24.605Z,95.36
2023-05-14T04:56:24.563Z,95.25
2023-05-14T04:57:24.539Z,95.00
2023-05-14T04:58:24.569Z,94.80
2023-05-14T04:59:24.526Z,94.59
2023-05-14T05:00:24.924Z,94.59
2023-05-14T05:01:24.589Z,94.49
2023-05-14T05:02:24.566Z,94.49
2023-05-14T05:03:24.607Z,94.49
2023-05-14T05:04:24.485Z,94.29
2023-05-14T05:05:24.468Z,94.18
2023-05-14T05:06:24.459Z,94.18
2023-05-14T05:07:24.434Z,94.29
2023-05-14T05:08:24.458Z,94.29
2023-05-14T05:09:24.421Z,94.29
2023-05-14T05:10:24.773Z,94.29
2023-05-14T05:11:24.391Z,94.39
2023-05-14T05:12:24.446Z,94.18
2023-05-14T05:13:24.370Z,94.29
2023-05-14T05:14:24.381Z,94.29
2023-05-14T05:15:26.520Z,94.18
2023-05-14T05:16:24.395Z,94.49
2023-05-14T05:17:24.389Z,94.39
2023-05-14T05:18:24.368Z,94.64
2023-05-14T05:19:35.741Z,94.84
2023-05-14T05:20:24.512Z,95.15
2023-05-14T05:21:24.298Z,95.36
2023-05-14T05:22:24.312Z,95.36
2023-05-14T05:23:24.273Z,95.25
2023-05-14T05:24:24.278Z,95.15
2023-05-14T05:25:24.245Z,95.15
2023-05-14T05:26:24.264Z,95.25
2023-05-14T05:27:24.238Z,95.21
2023-05-14T05:28:24.244Z,95.10
2023-05-14T05:29:24.200Z,95.05
2023-05-14T05:30:24.495Z,94.90
2023-05-14T05:31:24.205Z,94.80
2023-05-14T05:32:24.230Z,94.70
2023-05-14T05:33:24.179Z,94.59
2023-05-14T05:34:24.168Z,94.80
2023-05-14T05:35:24.146Z,94.59
2023-05-14T05:36:24.180Z,94.49
2023-05-14T05:37:24.137Z,94.39
2023-05-14T05:38:24.158Z,94.49
2023-05-14T05:39:24.103Z,94.59
2023-05-14T05:40:24.371Z,94.59
2023-05-14T05:41:24.078Z,94.49
2023-05-14T05:42:24.089Z,94.29
2023-05-14T05:43:24.049Z,94.29
2023-05-14T05:44:24.068Z,94.29
2023-05-14T05:45:24.047Z,94.29
2023-05-14T05:46:24.065Z,94.39
2023-05-14T05:47:24.063Z,94.49
2023-05-14T05:48:24.011Z,94.59
2023-05-14T05:49:23.990Z,94.45
2023-05-14T05:50:24.161Z,93.88
2023-05-14T05:51:23.964Z,93.84
2023-05-14T05:52:24.000Z,94.04
2023-05-14T05:53:23.989Z,93.01
2023-05-14T05:54:24.068Z,93.22
2023-05-14T05:55:23.921Z,93.12
2023-05-14T05:56:23.937Z,93.22
2023-05-14T05:57:26.191Z,92.97
2023-05-14T05:58:23.912Z,92.56
2023-05-14T05:59:23.904Z,92.87
2023-05-14T06:00:24.334Z,92.77
2023-05-14T06:01:23.888Z,92.46
2023-05-14T06:02:23.890Z,92.77
2023-05-14T06:03:23.872Z,92.25
2023-05-14T06:04:23.857Z,91.80
2023-05-14T06:05:23.907Z,92.11
2023-05-14T06:06:23.877Z,91.50
2023-05-14T06:07:23.797Z,91.96
2023-05-14T06:08:23.813Z,91.05
2023-05-14T06:09:23.772Z,90.12
2023-05-14T06:10:24.063Z,88.59
2023-05-14T06:11:23.768Z,88.96
2023-05-14T06:12:23.761Z,88.76
2023-05-14T06:13:23.732Z,86.88
2023-05-14T06:14:23.747Z,86.06
2023-05-14T06:15:23.730Z,85.65
2023-05-14T06:16:23.748Z,86.22
2023-05-14T06:17:23.825Z,85.41
2023-05-14T06:18:23.695Z,84.80
2023-05-14T06:19:23.680Z,83.87
2023-05-14T06:20:23.864Z,82.92
2023-05-14T06:21:23.682Z,83.33
2023-05-14T06:22:23.650Z,82.51
2023-05-14T06:23:23.676Z,82.71
2023-05-14T06:24:23.635Z,83.02
2023-05-14T06:25:23.618Z,83.53
2023-05-14T06:26:23.618Z,82.82
2023-05-14T06:27:23.613Z,82.10
2023-05-14T06:28:23.613Z,81.76
2023-05-14T06:29:23.651Z,82.17
2023-05-14T06:30:23.907Z,82.78
2023-05-14T06:31:23.560Z,82.47
2023-05-14T06:32:23.702Z,82.13
2023-05-14T06:33:23.566Z,81.21
2023-05-14T06:34:23.553Z,80.60
2023-05-14T06:35:23.501Z,80.50
2023-05-14T06:36:23.558Z,80.16
2023-05-14T06:37:23.480Z,79.85
2023-05-14T06:38:23.496Z,79.24
2023-05-14T06:39:23.454Z,78.42
2023-05-14T06:40:23.682Z,78.02
2023-05-14T06:41:23.442Z,77.00
2023-05-14T06:42:23.460Z,77.40
2023-05-14T06:43:23.417Z,77.26
2023-05-14T06:44:23.413Z,77.87
2023-05-14T06:45:23.386Z,77.37
2023-05-14T06:46:23.463Z,77.78
2023-05-14T06:47:23.435Z,77.47
2023-05-14T06:48:23.469Z,78.05
2023-05-14T06:49:23.349Z,78.45
2023-05-14T06:50:23.624Z,77.33
2023-05-14T06:51:23.348Z,76.21
2023-05-14T06:52:23.383Z,77.23
2023-05-14T06:53:23.307Z,77.64
2023-05-14T06:54:23.322Z,75.70
2023-05-14T06:55:23.343Z,75.26
2023-05-14T06:56:23.298Z,75.16
2023-05-14T06:57:23.276Z,75.26
2023-05-14T06:58:23.284Z,75.46
2023-05-14T06:59:23.248Z,75.67
2023-05-14T07:00:23.482Z,76.04
2023-05-14T07:01:23.305Z,74.92
2023-05-14T07:02:23.253Z,74.52
2023-05-14T07:03:23.209Z,74.31
2023-05-14T07:04:23.322Z,74.01
2023-05-14T07:05:23.176Z,73.39
2023-05-14T07:06:23.204Z,72.89
2023-05-14T07:07:23.149Z,74.28
2023-05-14T07:08:23.171Z,73.46
2023-05-14T07:09:23.145Z,72.75
2023-05-14T07:10:23.327Z,73.36
2023-05-14T07:11:23.146Z,72.75
2023-05-14T07:12:23.139Z,72.14
2023-05-14T07:13:23.090Z,72.14
2023-05-14T07:14:23.112Z,71.70
2023-05-14T07:15:23.072Z,70.68
2023-05-14T07:16:23.083Z,70.99
2023-05-14T07:17:23.121Z,71.16
2023-05-14T07:18:23.069Z,70.25
2023-05-14T07:19:23.018Z,70.35
2023-05-14T07:20:23.296Z,71.36
2023-05-14T07:21:23.003Z,70.32
2023-05-14T07:22:23.021Z,71.13
2023-05-14T07:23:23.175Z,70.28
2023-05-14T07:24:23.026Z,68.90
2023-05-14T07:25:22.982Z,67.58
2023-05-14T07:26:22.979Z,66.50
2023-05-14T07:27:22.944Z,66.47
2023-05-14T07:28:22.957Z,64.39
2023-05-14T07:29:22.938Z,63.58
2023-05-14T07:30:23.146Z,63.76
2023-05-14T07:31:23.013Z,63.15
2023-05-14T07:32:22.904Z,62.41
2023-05-14T07:33:22.872Z,61.07
2023-05-14T07:34:22.952Z,62.31
2023-05-14T07:35:22.859Z,61.94
2023-05-14T07:36:22.877Z,62.64
2023-05-14T07:37:24.191Z,63.28
2023-05-14T07:38:22.851Z,64.22
2023-05-14T07:39:22.817Z,63.99
2023-05-14T07:40:23.086Z,62.44
2023-05-14T07:41:22.814Z,62.34
2023-05-14T07:42:35.291Z,61.60
2023-05-14T07:43:22.768Z,59.99
2023-05-14T07:44:22.773Z,59.78
2023-05-14T07:45:22.908Z,58.82
2023-05-14T07:46:22.753Z,59.86
2023-05-14T07:47:22.810Z,60.26
2023-05-14T07:48:22.805Z,61.00
2023-05-14T07:49:22.699Z,62.47
2023-05-14T07:50:22.879Z,63.78
2023-05-14T07:51:22.705Z,63.10
2023-05-14T07:52:22.686Z,62.81
2023-05-14T07:53:22.657Z,62.50
2023-05-14T07:54:22.705Z,62.98
2023-05-14T07:55:22.640Z,63.61
2023-05-14T07:56:22.706Z,63.41
2023-05-14T07:57:22.637Z,62.70
2023-05-14T07:58:22.631Z,63.21
2023-05-14T07:59:22.591Z,63.04
2023-05-14T08:00:22.855Z,63.95
2023-05-14T08:01:22.583Z,63.75
2023-05-14T08:02:22.687Z,64.38
2023-05-14T08:03:22.720Z,64.65
2023-05-14T08:04:22.598Z,63.95
2023-05-14T08:05:22.535Z,64.45
2023-05-14T08:06:22.543Z,63.75
2023-05-14T08:07:22.518Z,63.84
2023-05-14T08:08:22.523Z,65.16
2023-05-14T08:09:22.484Z,64.89
2023-05-14T08:10:22.937Z,65.19
2023-05-14T08:11:22.544Z,63.87
2023-05-14T08:12:22.484Z,64.51
2023-05-14T08:13:22.445Z,64.79
2023-05-14T08:14:22.458Z,65.12
2023-05-14T08:15:22.431Z,64.82
2023-05-14T08:16:22.482Z,64.72
2023-05-14T08:17:22.461Z,65.25
2023-05-14T08:18:22.428Z,65.56
2023-05-14T08:19:22.380Z,65.66
2023-05-14T08:20:22.637Z,66.06
2023-05-14T08:21:22.401Z,67.08
2023-05-14T08:22:22.366Z,67.58
2023-05-14T08:23:22.432Z,68.29
2023-05-14T08:24:22.331Z,67.48
2023-05-14T08:25:22.383Z,67.08
2023-05-14T08:26:22.300Z,67.48
2023-05-14T08:27:22.367Z,67.79
2023-05-14T08:28:22.282Z,67.48
2023-05-14T08:29:22.309Z,65.96
2023-05-14T08:30:22.495Z,65.56
2023-05-14T08:31:22.384Z,65.86
2023-05-14T08:32:24.179Z,66.47
2023-05-14T08:33:22.257Z,66.60
2023-05-14T08:34:22.221Z,67.21
2023-05-14T08:35:22.254Z,66.30
2023-05-14T08:36:22.206Z,66.70
2023-05-14T08:37:22.207Z,65.89
2023-05-14T08:38:22.189Z,66.60
2023-05-14T08:39:22.182Z,67.65
2023-05-14T08:40:22.379Z,66.94
2023-05-14T08:41:22.180Z,66.94
2023-05-14T08:42:22.138Z,67.21
2023-05-14T08:43:22.145Z,67.72
2023-05-14T08:44:22.121Z,67.31
2023-05-14T08:45:22.134Z,68.32
2023-05-14T08:46:22.103Z,69.34
2023-05-14T08:47:22.137Z,68.32
2023-05-14T08:48:22.146Z,67.82
2023-05-14T08:49:22.094Z,67.72
2023-05-14T08:50:23.254Z,67.00
2023-05-14T08:51:22.109Z,68.93
2023-05-14T08:52:22.028Z,67.92
2023-05-14T08:53:22.057Z,67.00
2023-05-14T08:54:22.023Z,68.60
2023-05-14T08:55:22.031Z,67.28
2023-05-14T08:56:21.988Z,67.79
2023-05-14T08:57:22.005Z,67.38
2023-05-14T08:58:21.968Z,67.28
2023-05-14T08:59:21.999Z,67.79
2023-05-14T09:00:22.176Z,66.47
2023-05-14T09:01:21.965Z,66.27
2023-05-14T09:02:21.964Z,67.28
2023-05-14T09:03:21.969Z,67.38
2023-05-14T09:04:21.921Z,67.99
2023-05-14T09:05:21.911Z,66.91
2023-05-14T09:06:21.886Z,67.31
2023-05-14T09:07:21.904Z,67.38
2023-05-14T09:08:21.867Z,67.48
2023-05-14T09:09:21.870Z,67.48
2023-05-14T09:10:21.941Z,66.57
2023-05-14T09:11:21.858Z,66.88
2023-05-14T09:12:21.848Z,67.25
2023-05-14T09:13:21.821Z,66.54
2023-05-14T09:14:21.802Z,66.37
2023-05-14T09:15:21.816Z,67.31
2023-05-14T09:16:21.782Z,67.92
2023-05-14T09:17:21.799Z,67.82
2023-05-14T09:18:21.770Z,68.12
2023-05-14T09:19:21.898Z,68.49
2023-05-14T09:20:21.910Z,67.58
2023-05-14T09:21:21.737Z,66.67
2023-05-14T09:22:21.713Z,67.65
2023-05-14T09:23:21.709Z,66.44
2023-05-14T09:24:21.698Z,66.77
2023-05-14T09:25:21.678Z,66.94
2023-05-14T09:26:21.688Z,67.25
2023-05-14T09:27:21.684Z,67.85
2023-05-14T09:28:21.641Z,66.13
2023-05-14T09:29:21.684Z,66.41
2023-05-14T09:30:21.719Z,66.20
2023-05-14T09:31:21.654Z,66.10
2023-05-14T09:32:21.598Z,65.80
2023-05-14T09:33:21.631Z,65.29
2023-05-14T09:34:21.579Z,65.09
2023-05-14T09:35:21.609Z,65.56
2023-05-14T09:36:21.552Z,65.16
2023-05-14T09:37:21.573Z,65.87
2023-05-14T09:38:21.544Z,66.04
2023-05-14T09:39:21.555Z,64.70
2023-05-14T09:40:21.829Z,64.09
2023-05-14T09:41:21.519Z,63.45
2023-05-14T09:42:21.493Z,62.04
2023-05-14T09:43:21.494Z,61.00
2023-05-14T09:44:21.501Z,60.77
2023-05-14T09:45:21.478Z,60.57
2023-05-14T09:46:21.460Z,60.33
2023-05-14T09:47:21.490Z,60.74
2023-05-14T09:48:21.451Z,60.33
2023-05-14T09:49:21.448Z,60.51
2023-05-14T09:50:21.636Z,59.60
2023-05-14T09:51:21.450Z,59.97
2023-05-14T09:52:21.401Z,58.23
2023-05-14T09:53:21.392Z,59.75
2023-05-14T09:54:21.366Z,59.47
2023-05-14T09:55:21.451Z,60.61
2023-05-14T09:56:21.339Z,60.31
2023-05-14T09:57:21.360Z,59.50
2023-05-14T09:58:21.333Z,59.09
2023-05-14T09:59:21.363Z,60.10
2023-05-14T10:00:21.572Z,59.40
2023-05-14T10:01:21.315Z,60.41
2023-05-14T10:02:21.352Z,60.10
2023-05-14T10:03:21.282Z,60.10
2023-05-14T10:04:21.298Z,60.31
2023-05-14T10:05:21.267Z,60.71
2023-05-14T10:06:21.245Z,59.20
2023-05-14T10:07:21.239Z,58.80
2023-05-14T10:08:21.209Z,59.50
2023-05-14T10:09:21.241Z,60.41
2023-05-14T10:10:21.378Z,58.80
2023-05-14T10:11:21.214Z,58.89
2023-05-14T10:12:21.180Z,59.17
2023-05-14T10:13:21.208Z,59.00
2023-05-14T10:14:21.153Z,60.00
2023-05-14T10:15:21.175Z,60.64
2023-05-14T10:16:21.181Z,59.93
2023-05-14T10:17:21.181Z,58.72
2023-05-14T10:18:21.122Z,59.22
2023-05-14T10:19:21.350Z,60.21
2023-05-14T10:20:21.118Z,60.41
2023-05-14T10:21:21.105Z,60.21
2023-05-14T10:22:21.066Z,59.33
2023-05-14T10:23:21.079Z,62.51
2023-05-14T10:24:21.074Z,62.01
2023-05-14T10:25:21.045Z,63.02
2023-05-14T10:26:23.202Z,62.51
2023-05-14T10:27:21.044Z,62.04
2023-05-14T10:28:21.039Z,62.85
2023-05-14T10:29:21.022Z,62.54
2023-05-14T10:30:20.977Z,63.15
2023-05-14T10:31:21.078Z,64.56
2023-05-14T10:32:20.956Z,63.62
2023-05-14T10:33:21.006Z,63.62
2023-05-14T10:34:20.944Z,62.62
2023-05-14T10:35:21.006Z,62.62
2023-05-14T10:36:20.910Z,61.51
2023-05-14T10:37:20.936Z,61.71
2023-05-14T10:38:20.909Z,62.44
2023-05-14T10:39:20.901Z,62.34
2023-05-14T10:40:20.900Z,62.34
2023-05-14T10:41:20.883Z,62.14
2023-05-14T10:42:20.849Z,62.04
2023-05-14T10:43:20.878Z,63.25
2023-05-14T10:44:20.829Z,62.14
2023-05-14T10:45:20.849Z,62.47
2023-05-14T10:46:20.807Z,64.19
2023-05-14T10:47:20.853Z,63.28
2023-05-14T10:48:20.860Z,63.38
2023-05-14T10:49:32.340Z,63.89
2023-05-14T10:50:20.784Z,64.97
2023-05-14T10:51:20.911Z,63.65
2023-05-14T10:52:20.764Z,63.05
2023-05-14T10:53:20.761Z,62.21
2023-05-14T10:54:20.713Z,61.77
2023-05-14T10:55:20.748Z,61.47
2023-05-14T10:56:20.701Z,61.85
2023-05-14T10:57:20.700Z,62.96
2023-05-14T10:58:20.678Z,61.32
2023-05-14T10:59:20.694Z,59.57
2023-05-14T11:00:20.677Z,58.97
2023-05-14T11:01:20.684Z,58.54
2023-05-14T11:02:20.658Z,57.37
2023-05-14T11:03:20.713Z,55.88
2023-05-14T11:04:20.657Z,56.03
2023-05-14T11:05:20.636Z,53.85
2023-05-14T11:06:20.611Z,51.74
2023-05-14T11:07:20.600Z,51.12
2023-05-14T11:08:21.521Z,51.77
2023-05-14T11:09:20.596Z,49.04
2023-05-14T11:10:20.571Z,50.14
2023-05-14T11:11:20.594Z,50.70
2023-05-14T11:12:20.547Z,49.11
2023-05-14T11:13:20.549Z,49.52
2023-05-14T11:14:20.512Z,50.59
2023-05-14T11:15:20.534Z,50.02
2023-05-14T11:16:23.328Z,48.22
2023-05-14T11:17:20.529Z,47.74
2023-05-14T11:18:20.464Z,49.46
2023-05-14T11:19:20.497Z,49.79
2023-05-14T11:20:20.447Z,49.31
2023-05-14T11:21:20.522Z,49.54
2023-05-14T11:22:20.424Z,49.74
2023-05-14T11:23:20.432Z,49.63
2023-05-14T11:24:20.400Z,50.44
2023-05-14T11:25:20.422Z,50.63
2023-05-14T11:26:21.657Z,49.84
2023-05-14T11:27:20.398Z,50.04
2023-05-14T11:28:20.373Z,50.04
2023-05-14T11:29:20.366Z,51.17
2023-05-14T11:30:20.362Z,51.76
2023-05-14T11:31:20.385Z,51.89
2023-05-14T11:32:20.424Z,52.12
2023-05-14T11:33:20.409Z,51.72
2023-05-14T11:34:20.329Z,52.24
2023-05-14T11:35:20.320Z,52.24
2023-05-14T11:36:20.284Z,51.86
2023-05-14T11:37:20.305Z,52.17
2023-05-14T11:38:20.265Z,53.77
2023-05-14T11:39:20.272Z,54.17
2023-05-14T11:40:20.229Z,54.58
2023-05-14T11:41:20.240Z,54.58
2023-05-14T11:42:20.226Z,53.40
2023-05-14T11:43:20.237Z,53.00
2023-05-14T11:44:20.200Z,53.00
2023-05-14T11:45:20.210Z,53.20
2023-05-14T11:46:20.245Z,53.60
2023-05-14T11:47:20.191Z,53.97
2023-05-14T11:48:20.167Z,54.48
2023-05-14T11:49:20.176Z,54.28
2023-05-14T11:50:20.136Z,55.55
2023-05-14T11:51:20.132Z,53.95
2023-05-14T11:52:20.110Z,54.05
2023-05-14T11:53:20.129Z,54.25
2023-05-14T11:54:20.095Z,54.13
2023-05-14T11:55:20.105Z,53.72
2023-05-14T11:56:20.075Z,51.49
2023-05-14T11:57:20.084Z,51.51
2023-05-14T11:58:20.042Z,51.42
2023-05-14T11:59:20.060Z,51.31
2023-05-14T12:00:20.018Z,50.11
2023-05-14T12:01:20.033Z,52.12
2023-05-14T12:02:20.033Z,52.42
2023-05-14T12:03:20.206Z,53.12
2023-05-14T12:04:20.018Z,53.62
2023-05-14T12:05:20.016Z,52.55
2023-05-14T12:06:19.946Z,53.34
2023-05-14T12:07:19.972Z,52.44
2023-05-14T12:08:19.925Z,52.37
2023-05-14T12:09:19.985Z,52.37
2023-05-14T12:10:19.915Z,52.32
2023-05-14T12:11:19.925Z,51.59
2023-05-14T12:12:19.884Z,50.96
2023-05-14T12:13:19.908Z,50.99
2023-05-14T12:14:19.886Z,51.39
2023-05-14T12:15:19.894Z,52.07
2023-05-14T12:16:19.866Z,51.59
2023-05-14T12:17:19.864Z,52.49
2023-05-14T12:18:24.517Z,50.61
2023-05-14T12:19:19.872Z,52.14
2023-05-14T12:20:19.804Z,51.74
2023-05-14T12:21:19.836Z,52.84
2023-05-14T12:22:19.782Z,53.97
2023-05-14T12:23:19.808Z,52.87
2023-05-14T12:24:19.760Z,53.30
2023-05-14T12:25:19.779Z,53.50
2023-05-14T12:26:19.789Z,53.00
2023-05-14T12:27:19.748Z,53.63
2023-05-14T12:28:19.717Z,54.73
2023-05-14T12:29:19.734Z,53.92
2023-05-14T12:30:21.448Z,54.03
2023-05-14T12:31:19.739Z,55.03
2023-05-14T12:32:19.675Z,55.23
2023-05-14T12:33:19.695Z,56.24
2023-05-14T12:34:19.653Z,55.33
2023-05-14T12:35:19.653Z,54.53
2023-05-14T12:36:21.658Z,54.73
2023-05-14T12:37:19.667Z,55.54
2023-05-14T12:38:19.644Z,54.75
2023-05-14T12:39:19.604Z,55.66
2023-05-14T12:40:19.626Z,55.59
2023-05-14T12:41:19.580Z,55.49
2023-05-14T12:42:19.596Z,55.36
2023-05-14T12:43:19.575Z,55.56
2023-05-14T12:44:19.560Z,55.76
2023-05-14T12:45:19.531Z,54.55
2023-05-14T12:46:19.542Z,54.46
2023-05-14T12:47:19.710Z,54.55
2023-05-14T12:48:19.536Z,54.75
2023-05-14T12:49:19.502Z,53.95
2023-05-14T12:50:19.542Z,55.06
2023-05-14T12:51:19.470Z,54.83
2023-05-14T12:52:29.405Z,56.04